Altair — FGG8349 — position and weather

sailwx.info

Track history (hours):
 
Tides and Currents Weather Stations Pressure Air Temp Water Temp Dewpoint Dewpoint Depression Visibility Wind Speed Wind Dir Waves Ship Positions

Altair

Last reported at 2017-Sep-21 17:54 UTC. Time now 2017-Nov-23 05:52 UTC.
Position N 47°48' W 003°57'.
Warning: this ship's position is months out of date.

Length 12 m.

Type: Sailing vessel. MMSI: 227054440.

Date/timePositionNaut miles runAvg speedWind from/ knotsBaromVisibWave heightAir tempDewpointWater temp
2017-Sep-21 17:54N 47°48' W 003°57'5 0.8
2017-Sep-21 11:38N 47°44' W 003°60'2 0.4
2017-Sep-21 07:58N 47°44' W 003°57'  
2017-Sep-16 11:24N 47°13' W 003°08'5 6.9
2017-Sep-16 10:44N 47°17' W 003°04'2 7.4
2017-Sep-16 10:30N 47°18' W 003°02'4 7.6
2017-Sep-16 10:00N 47°21' W 002°59'3 5.7
2017-Sep-16 09:30N 47°23' W 002°56'2 3.8
2017-Sep-16 09:00N 47°25' W 002°57'3 5.6
2017-Sep-16 08:30N 47°27' W 002°59'3 5.7
2017-Sep-16 08:00N 47°30' W 002°59'3 5.9
2017-Sep-16 07:30N 47°33' W 003°00'2 4.1
2017-Sep-16 07:00N 47°35' W 003°01'1 1.1
2017-Sep-16 06:28N 47°35' W 003°01'0 0.0
2017-Sep-16 05:58N 47°35' W 003°01'0 0.0
2017-Sep-16 05:28N 47°35' W 003°01'0 0.0
2017-Sep-16 04:58N 47°35' W 003°01'0 0.0
2017-Sep-16 04:28N 47°35' W 003°01'0 0.0
2017-Sep-16 03:58N 47°35' W 003°01'0 0.0
2017-Sep-16 03:28N 47°35' W 003°01'0 0.0
2017-Sep-16 02:58N 47°35' W 003°01'0 0.0
2017-Sep-16 02:28N 47°35' W 003°01'0 0.0
2017-Sep-16 01:58N 47°35' W 003°01'0 0.0
2017-Sep-16 01:28N 47°35' W 003°01'0 0.0
2017-Sep-16 00:58N 47°35' W 003°01'0 0.0
2017-Sep-16 00:28N 47°35' W 003°01'0 0.0
2017-Sep-15 23:58N 47°35' W 003°01'0 0.0
2017-Sep-15 23:28N 47°35' W 003°01'0 0.0
2017-Sep-15 22:58N 47°35' W 003°01'0 0.0
2017-Sep-15 22:28N 47°35' W 003°01'0 0.0
2017-Sep-15 21:58N 47°35' W 003°01'0 0.0
2017-Sep-15 21:28N 47°35' W 003°01'0 0.0
2017-Sep-15 20:58N 47°35' W 003°01'0 0.0
2017-Sep-15 20:28N 47°35' W 003°01'0 0.0
2017-Sep-15 19:58N 47°35' W 003°01'0 0.0
2017-Sep-15 19:28N 47°35' W 003°01'0 0.0
2017-Sep-15 18:58N 47°35' W 003°01'0 0.0
2017-Sep-15 18:28N 47°35' W 003°01'0 0.0
2017-Sep-15 17:58N 47°35' W 003°01'0 0.0
2017-Sep-15 17:28N 47°35' W 003°01'0 0.0
2017-Sep-15 16:58N 47°35' W 003°01'0 0.0
2017-Sep-15 16:28N 47°35' W 003°01'0 0.0
2017-Sep-15 15:58N 47°35' W 003°01'0 0.0
2017-Sep-15 15:28N 47°35' W 003°01'0 0.0
2017-Sep-15 14:58N 47°35' W 003°01'0 0.0
2017-Sep-15 14:28N 47°35' W 003°01'0 0.0
2017-Sep-15 13:58N 47°35' W 003°01'0 0.0
2017-Sep-15 13:28N 47°35' W 003°01'0 0.0
2017-Sep-15 12:58N 47°35' W 003°01'0 0.0
2017-Sep-15 12:28N 47°35' W 003°01'0 0.0
2017-Sep-15 11:58N 47°35' W 003°01'0 0.0
2017-Sep-15 11:28N 47°35' W 003°01'0 0.0
2017-Sep-15 10:58N 47°35' W 003°01'0 0.0
2017-Sep-15 10:28N 47°35' W 003°01'0 0.0
2017-Sep-15 09:58N 47°35' W 003°01'  
Track history (hours):
 
Tides and Currents Weather Stations Pressure Air Temp Water Temp Dewpoint Dewpoint Depression Visibility Wind Speed Wind Dir Waves Ship Positions

Altair

Last reported at 2017-Sep-21 17:54 UTC. Time now 2017-Nov-23 05:52 UTC.
Position N 47°48' W 003°57'.
Warning: this ship's position is months out of date.

Length 12 m.

Type: Sailing vessel. MMSI: 227054440.

Date/timePositionNaut miles runAvg speedWind from/ knotsBaromVisibWave heightAir tempDewpointWater temp
2017-Sep-21 17:54N 47°48' W 003°57'5 0.8
2017-Sep-21 11:38N 47°44' W 003°60'2 0.4
2017-Sep-21 07:58N 47°44' W 003°57'  
2017-Sep-16 11:24N 47°13' W 003°08'5 6.9
2017-Sep-16 10:44N 47°17' W 003°04'2 7.4
2017-Sep-16 10:30N 47°18' W 003°02'4 7.6
2017-Sep-16 10:00N 47°21' W 002°59'3 5.7
2017-Sep-16 09:30N 47°23' W 002°56'2 3.8
2017-Sep-16 09:00N 47°25' W 002°57'3 5.6
2017-Sep-16 08:30N 47°27' W 002°59'3 5.7
2017-Sep-16 08:00N 47°30' W 002°59'3 5.9
2017-Sep-16 07:30N 47°33' W 003°00'2 4.1
2017-Sep-16 07:00N 47°35' W 003°01'1 1.1
2017-Sep-16 06:28N 47°35' W 003°01'0 0.0
2017-Sep-16 05:58N 47°35' W 003°01'0 0.0
2017-Sep-16 05:28N 47°35' W 003°01'0 0.0
2017-Sep-16 04:58N 47°35' W 003°01'0 0.0
2017-Sep-16 04:28N 47°35' W 003°01'0 0.0
2017-Sep-16 03:58N 47°35' W 003°01'0 0.0
2017-Sep-16 03:28N 47°35' W 003°01'0 0.0
2017-Sep-16 02:58N 47°35' W 003°01'0 0.0
2017-Sep-16 02:28N 47°35' W 003°01'0 0.0
2017-Sep-16 01:58N 47°35' W 003°01'0 0.0
2017-Sep-16 01:28N 47°35' W 003°01'0 0.0
2017-Sep-16 00:58N 47°35' W 003°01'0 0.0
2017-Sep-16 00:28N 47°35' W 003°01'0 0.0
2017-Sep-15 23:58N 47°35' W 003°01'0 0.0
2017-Sep-15 23:28N 47°35' W 003°01'0 0.0
2017-Sep-15 22:58N 47°35' W 003°01'0 0.0
2017-Sep-15 22:28N 47°35' W 003°01'0 0.0
2017-Sep-15 21:58N 47°35' W 003°01'0 0.0
2017-Sep-15 21:28N 47°35' W 003°01'0 0.0
2017-Sep-15 20:58N 47°35' W 003°01'0 0.0
2017-Sep-15 20:28N 47°35' W 003°01'0 0.0
2017-Sep-15 19:58N 47°35' W 003°01'0 0.0
2017-Sep-15 19:28N 47°35' W 003°01'0 0.0
2017-Sep-15 18:58N 47°35' W 003°01'0 0.0
2017-Sep-15 18:28N 47°35' W 003°01'0 0.0
2017-Sep-15 17:58N 47°35' W 003°01'0 0.0
2017-Sep-15 17:28N 47°35' W 003°01'0 0.0
2017-Sep-15 16:58N 47°35' W 003°01'0 0.0
2017-Sep-15 16:28N 47°35' W 003°01'0 0.0
2017-Sep-15 15:58N 47°35' W 003°01'0 0.0
2017-Sep-15 15:28N 47°35' W 003°01'0 0.0
2017-Sep-15 14:58N 47°35' W 003°01'0 0.0
2017-Sep-15 14:28N 47°35' W 003°01'0 0.0
2017-Sep-15 13:58N 47°35' W 003°01'0 0.0
2017-Sep-15 13:28N 47°35' W 003°01'0 0.0
2017-Sep-15 12:58N 47°35' W 003°01'0 0.0
2017-Sep-15 12:28N 47°35' W 003°01'0 0.0
2017-Sep-15 11:58N 47°35' W 003°01'0 0.0
2017-Sep-15 11:28N 47°35' W 003°01'0 0.0
2017-Sep-15 10:58N 47°35' W 003°01'0 0.0
2017-Sep-15 10:28N 47°35' W 003°01'0 0.0
2017-Sep-15 09:58N 47°35' W 003°01'  

Dump ship's entire track history